createdAt,value
2018-09-03T00:00:51.395Z,0.00
2018-09-03T00:01:51.546Z,0.00
2018-09-03T00:02:51.701Z,0.00
2018-09-03T00:03:51.855Z,0.00
2018-09-03T00:04:52.010Z,0.00
2018-09-03T00:05:52.162Z,0.00
2018-09-03T00:06:52.314Z,0.00
2018-09-03T00:07:52.465Z,0.00
2018-09-03T00:08:52.616Z,0.00
2018-09-03T00:09:52.772Z,0.00
2018-09-03T00:10:52.921Z,0.00
2018-09-03T00:11:53.073Z,0.00
2018-09-03T00:12:53.228Z,0.00
2018-09-03T00:13:53.379Z,0.00
2018-09-03T00:14:53.533Z,0.00
2018-09-03T00:15:53.684Z,0.00
2018-09-03T00:16:53.835Z,0.00
2018-09-03T00:17:53.989Z,0.00
2018-09-03T00:18:54.142Z,0.00
2018-09-03T00:19:54.293Z,0.00
2018-09-03T00:20:54.445Z,0.00
2018-09-03T00:21:54.598Z,0.00
2018-09-03T00:22:54.751Z,0.00
2018-09-03T00:23:54.902Z,0.00
2018-09-03T00:24:55.060Z,0.00
2018-09-03T00:25:55.209Z,0.00
2018-09-03T00:26:55.362Z,0.00
2018-09-03T00:27:55.513Z,0.00
2018-09-03T00:28:55.668Z,0.00
2018-09-03T00:29:55.819Z,0.00
2018-09-03T00:30:55.973Z,0.00
2018-09-03T00:31:56.124Z,0.00
2018-09-03T00:32:56.279Z,0.00
2018-09-03T00:33:56.431Z,0.00
2018-09-03T00:34:56.581Z,0.00
2018-09-03T00:35:56.735Z,0.00
2018-09-03T00:36:56.888Z,0.00
2018-09-03T00:37:57.039Z,0.00
2018-09-03T00:38:57.192Z,0.00
2018-09-03T00:39:57.342Z,0.00
2018-09-03T00:40:57.495Z,0.00
2018-09-03T00:41:57.648Z,0.00
2018-09-03T00:42:57.805Z,0.00
2018-09-03T00:43:57.950Z,0.00
2018-09-03T00:44:58.104Z,0.00
2018-09-03T00:45:58.261Z,0.00
2018-09-03T00:46:58.414Z,0.00
2018-09-03T00:47:58.565Z,0.00
2018-09-03T00:48:58.715Z,0.00
2018-09-03T00:49:58.869Z,0.00
2018-09-03T00:50:59.018Z,0.00
2018-09-03T00:51:59.172Z,0.00
2018-09-03T00:52:59.325Z,0.00
2018-09-03T00:53:59.481Z,0.00
2018-09-03T00:54:59.627Z,0.00
2018-09-03T00:55:59.780Z,0.00
2018-09-03T00:56:59.933Z,0.00
2018-09-03T00:58:00.086Z,0.00
2018-09-03T00:59:00.240Z,0.00
2018-09-03T01:00:00.393Z,0.00
2018-09-03T01:01:00.545Z,0.00
2018-09-03T01:02:00.700Z,0.00
2018-09-03T01:03:00.860Z,0.00
2018-09-03T01:04:01.007Z,0.00
2018-09-03T01:05:01.159Z,0.00
2018-09-03T01:06:01.321Z,0.00
2018-09-03T01:07:01.474Z,0.00
2018-09-03T01:08:01.627Z,0.00
2018-09-03T01:09:01.780Z,0.00
2018-09-03T01:10:01.931Z,0.00
2018-09-03T01:11:02.086Z,0.00
2018-09-03T01:12:02.237Z,0.00
2018-09-03T01:13:02.391Z,0.00
2018-09-03T01:14:02.546Z,0.00
2018-09-03T01:15:02.698Z,0.00
2018-09-03T01:16:02.850Z,0.00
2018-09-03T01:17:03.002Z,0.00
2018-09-03T01:18:03.154Z,0.00
2018-09-03T01:19:03.306Z,0.00
2018-09-03T01:20:03.457Z,0.00
2018-09-03T01:21:03.610Z,0.00
2018-09-03T01:22:03.763Z,0.00
2018-09-03T01:23:03.917Z,0.00
2018-09-03T01:24:04.073Z,0.00
2018-09-03T01:25:04.224Z,0.00
2018-09-03T01:26:04.377Z,0.00
2018-09-03T01:27:04.530Z,0.00
2018-09-03T01:28:04.684Z,0.00
2018-09-03T01:29:04.839Z,0.00
2018-09-03T01:30:04.988Z,0.00
2018-09-03T01:31:05.141Z,0.00
2018-09-03T01:32:05.292Z,0.00
2018-09-03T01:33:05.445Z,0.00
2018-09-03T01:34:05.605Z,0.00
2018-09-03T01:35:05.785Z,0.00
2018-09-03T01:36:05.928Z,0.00
2018-09-03T01:37:06.085Z,0.00
2018-09-03T01:38:06.235Z,0.00
2018-09-03T01:39:06.387Z,0.00
2018-09-03T01:40:06.540Z,0.00
2018-09-03T01:41:06.693Z,0.00
2018-09-03T01:42:06.848Z,0.00
2018-09-03T01:43:07.002Z,0.00
2018-09-03T01:44:07.153Z,0.00
2018-09-03T01:45:07.309Z,0.00
2018-09-03T01:46:07.459Z,0.00
2018-09-03T01:47:07.613Z,0.00
2018-09-03T01:48:07.768Z,0.00
2018-09-03T01:49:07.921Z,0.00
2018-09-03T01:50:08.077Z,0.00
2018-09-03T01:51:08.227Z,0.00
2018-09-03T01:52:08.382Z,0.00
2018-09-03T01:53:08.535Z,0.00
2018-09-03T01:54:08.688Z,0.00
2018-09-03T01:55:08.842Z,0.00
2018-09-03T01:56:08.998Z,0.00
2018-09-03T01:57:09.151Z,0.00
2018-09-03T01:58:09.309Z,0.00
2018-09-03T01:59:09.457Z,0.00
2018-09-03T02:00:09.612Z,0.00
2018-09-03T02:01:09.762Z,0.00
2018-09-03T02:02:09.914Z,0.00
2018-09-03T02:03:10.067Z,0.00
2018-09-03T02:04:10.227Z,0.00
2018-09-03T02:05:10.373Z,0.00
2018-09-03T02:06:10.526Z,0.00
2018-09-03T02:07:10.677Z,0.00
2018-09-03T02:08:10.832Z,0.00
2018-09-03T02:09:10.983Z,0.00
2018-09-03T02:10:11.137Z,0.00
2018-09-03T02:11:11.289Z,0.00
2018-09-03T02:12:11.444Z,0.00
2018-09-03T02:13:11.596Z,0.00
2018-09-03T02:14:11.751Z,0.00
2018-09-03T02:15:11.906Z,0.00
2018-09-03T02:16:12.057Z,0.00
2018-09-03T02:17:12.210Z,0.00
2018-09-03T02:18:12.365Z,0.00
2018-09-03T02:19:12.520Z,0.00
2018-09-03T02:20:12.672Z,0.00
2018-09-03T02:21:12.826Z,0.00
2018-09-03T02:22:12.978Z,0.00
2018-09-03T02:23:13.133Z,0.00
2018-09-03T02:24:13.285Z,0.00
2018-09-03T02:25:13.438Z,0.00
2018-09-03T02:26:13.592Z,0.00
2018-09-03T02:27:13.743Z,0.00
2018-09-03T02:28:13.899Z,0.00
2018-09-03T02:29:14.051Z,0.00
2018-09-03T02:30:14.208Z,0.00
2018-09-03T02:31:14.360Z,0.00
2018-09-03T02:32:14.518Z,0.00
2018-09-03T02:33:14.666Z,0.00
2018-09-03T02:34:14.820Z,0.00
2018-09-03T02:35:14.972Z,0.00
2018-09-03T02:36:15.124Z,0.00
2018-09-03T02:37:15.278Z,0.00
2018-09-03T02:38:15.434Z,0.00
2018-09-03T02:39:15.585Z,0.00
2018-09-03T02:40:15.743Z,0.00
2018-09-03T02:41:15.894Z,0.00
2018-09-03T02:42:16.052Z,0.00
2018-09-03T02:43:16.201Z,0.00
2018-09-03T02:44:16.356Z,0.00
2018-09-03T02:45:16.509Z,0.00
2018-09-03T02:46:16.662Z,0.00
2018-09-03T02:47:16.812Z,0.00
2018-09-03T02:48:16.966Z,0.00
2018-09-03T02:49:17.118Z,0.00
2018-09-03T02:50:17.271Z,0.00
2018-09-03T02:51:17.425Z,0.00
2018-09-03T02:52:17.580Z,0.00
2018-09-03T02:53:17.734Z,0.00
2018-09-03T02:54:17.888Z,0.00
2018-09-03T02:55:18.043Z,0.00
2018-09-03T02:56:18.196Z,0.00
2018-09-03T02:57:18.352Z,0.00
2018-09-03T02:58:18.503Z,0.00
2018-09-03T02:59:18.656Z,0.00
2018-09-03T03:00:18.810Z,0.00
2018-09-03T03:01:18.963Z,0.00
2018-09-03T03:02:19.117Z,0.00
2018-09-03T03:03:19.271Z,0.00
2018-09-03T03:04:19.424Z,0.00
2018-09-03T03:05:19.576Z,0.00
2018-09-03T03:06:19.731Z,0.00
2018-09-03T03:07:19.885Z,0.00
2018-09-03T03:08:20.036Z,0.00
2018-09-03T03:09:20.193Z,0.00
2018-09-03T03:10:20.343Z,0.00
2018-09-03T03:11:20.499Z,0.00
2018-09-03T03:12:20.652Z,0.00
2018-09-03T03:13:20.808Z,0.00
2018-09-03T03:14:20.960Z,0.00
2018-09-03T03:15:21.112Z,0.00
2018-09-03T03:16:21.269Z,0.00
2018-09-03T03:17:21.423Z,0.00
2018-09-03T03:18:21.576Z,0.00
2018-09-03T03:19:21.729Z,0.00
2018-09-03T03:20:21.884Z,0.00
2018-09-03T03:21:22.041Z,0.00
2018-09-03T03:22:22.188Z,0.00
2018-09-03T03:23:22.342Z,0.00
2018-09-03T03:24:22.495Z,0.00
2018-09-03T03:25:22.645Z,0.00
2018-09-03T03:26:22.800Z,0.00
2018-09-03T03:27:22.952Z,0.00
2018-09-03T03:28:23.103Z,0.00
2018-09-03T03:29:23.256Z,0.00
2018-09-03T03:30:23.412Z,0.00
2018-09-03T03:31:23.568Z,0.00
2018-09-03T03:32:23.720Z,0.00
2018-09-03T03:33:23.873Z,0.00
2018-09-03T03:34:24.029Z,0.00
2018-09-03T03:35:24.182Z,0.00
2018-09-03T03:36:24.334Z,0.00
2018-09-03T03:37:24.488Z,0.00
2018-09-03T03:38:24.645Z,0.00
2018-09-03T03:39:24.796Z,0.00
2018-09-03T03:40:24.950Z,0.00
2018-09-03T03:41:25.104Z,0.00
2018-09-03T03:42:25.257Z,0.00
2018-09-03T03:43:25.411Z,0.00
2018-09-03T03:44:25.563Z,0.00
2018-09-03T03:45:25.715Z,0.00
2018-09-03T03:46:25.868Z,0.00
2018-09-03T03:47:26.024Z,0.00
2018-09-03T03:48:26.178Z,0.00
2018-09-03T03:49:26.330Z,0.00
2018-09-03T03:50:26.484Z,0.00
2018-09-03T03:51:26.637Z,0.00
2018-09-03T03:52:26.793Z,0.00
2018-09-03T03:53:26.945Z,0.00
2018-09-03T03:54:27.102Z,0.00
2018-09-03T03:55:27.253Z,0.00
2018-09-03T03:56:27.408Z,0.00
2018-09-03T03:57:27.561Z,0.00
2018-09-03T03:58:27.714Z,0.00
2018-09-03T03:59:27.871Z,0.00
2018-09-03T04:00:28.021Z,0.00
2018-09-03T04:01:28.175Z,0.00
2018-09-03T04:02:28.329Z,0.00
2018-09-03T04:03:28.484Z,0.00
2018-09-03T04:04:28.636Z,0.00
2018-09-03T04:05:28.793Z,0.00
2018-09-03T04:06:28.948Z,0.00
2018-09-03T04:07:29.102Z,0.00
2018-09-03T04:08:29.260Z,0.00
2018-09-03T04:09:29.407Z,0.00
2018-09-03T04:10:29.564Z,0.00
2018-09-03T04:11:29.714Z,0.00
2018-09-03T04:12:29.866Z,4.00
2018-09-03T04:13:30.023Z,4.00
2018-09-03T04:14:30.175Z,4.00
2018-09-03T04:15:30.329Z,0.00
2018-09-03T04:16:30.483Z,4.00
2018-09-03T04:17:30.636Z,4.00
2018-09-03T04:18:30.790Z,4.00
2018-09-03T04:19:30.943Z,4.00
2018-09-03T04:20:31.097Z,4.00
2018-09-03T04:21:31.252Z,8.00
2018-09-03T04:22:31.405Z,12.00
2018-09-03T04:23:31.561Z,12.00
2018-09-03T04:24:31.713Z,16.00
2018-09-03T04:25:31.866Z,20.00
2018-09-03T04:26:32.021Z,20.00
2018-09-03T04:27:32.173Z,20.00
2018-09-03T04:28:32.327Z,24.00
2018-09-03T04:29:32.482Z,32.00
2018-09-03T04:30:32.633Z,32.00
2018-09-03T04:31:32.787Z,32.00
2018-09-03T04:32:32.940Z,40.00
2018-09-03T04:33:33.093Z,48.00
2018-09-03T04:34:33.250Z,64.00
2018-09-03T04:35:33.410Z,76.00
2018-09-03T04:36:33.556Z,96.00
2018-09-03T04:37:33.709Z,120.00
2018-09-03T04:38:33.914Z,132.00
2018-09-03T04:39:34.016Z,144.00
2018-09-03T04:40:34.175Z,152.00
2018-09-03T04:41:34.326Z,164.00
2018-09-03T04:42:34.480Z,172.00
2018-09-03T04:43:34.631Z,192.00
2018-09-03T04:44:34.785Z,216.00
2018-09-03T04:45:34.938Z,232.00
2018-09-03T04:46:35.091Z,236.00
2018-09-03T04:47:35.244Z,228.00
2018-09-03T04:48:35.400Z,228.00
2018-09-03T04:49:35.556Z,256.00
2018-09-03T04:50:35.701Z,296.00
2018-09-03T04:51:35.864Z,344.00
2018-09-03T04:52:36.016Z,388.00
2018-09-03T04:53:36.169Z,428.00
2018-09-03T04:54:36.334Z,456.00
2018-09-03T04:55:36.479Z,488.00
2018-09-03T04:56:36.631Z,536.00
2018-09-03T04:57:36.784Z,600.00
2018-09-03T04:58:36.941Z,668.00
2018-09-03T04:59:37.098Z,744.00
2018-09-03T05:00:37.294Z,832.00
2018-09-03T05:01:37.433Z,928.00
2018-09-03T05:02:37.554Z,1012.00
2018-09-03T05:03:37.707Z,1100.00
2018-09-03T05:04:37.861Z,1192.00
2018-09-03T05:05:38.033Z,1308.00
2018-09-03T05:06:38.169Z,1440.00
2018-09-03T05:07:38.322Z,1556.00
2018-09-03T05:08:38.475Z,1624.00
2018-09-03T05:09:38.629Z,1640.00
2018-09-03T05:10:38.781Z,1588.00
2018-09-03T05:11:38.974Z,1500.00
2018-09-03T05:12:39.097Z,1432.00
2018-09-03T05:13:39.243Z,1368.00
2018-09-03T05:14:39.397Z,1288.00
2018-09-03T05:15:39.552Z,1228.00
2018-09-03T05:16:39.707Z,1208.00
2018-09-03T05:17:39.861Z,1200.00
2018-09-03T05:18:40.014Z,1176.00
2018-09-03T05:19:40.168Z,1188.00
2018-09-03T05:20:40.321Z,1200.00
2018-09-03T05:21:40.472Z,1176.00
2018-09-03T05:22:40.625Z,1180.00
2018-09-03T05:23:40.784Z,1196.00
2018-09-03T05:24:40.933Z,1308.00
2018-09-03T05:25:41.090Z,1440.00
2018-09-03T05:26:41.237Z,1488.00
2018-09-03T05:27:41.393Z,1520.00
2018-09-03T05:28:41.544Z,1592.00
2018-09-03T05:29:41.700Z,1696.00
2018-09-03T05:30:41.852Z,1880.00
2018-09-03T05:31:42.007Z,1968.00
2018-09-03T05:32:42.160Z,1980.00
2018-09-03T05:33:42.312Z,1948.00
2018-09-03T05:34:42.466Z,1928.00
2018-09-03T05:35:42.625Z,1932.00
2018-09-03T05:36:42.774Z,1980.00
2018-09-03T05:37:42.927Z,2032.00
2018-09-03T05:38:43.080Z,2060.00
2018-09-03T05:39:43.272Z,2232.00
2018-09-03T05:40:43.388Z,2364.00
2018-09-03T05:41:43.541Z,2364.00
2018-09-03T05:42:43.701Z,2400.00
2018-09-03T05:43:43.996Z,2580.00
2018-09-03T05:44:44.007Z,2764.00
2018-09-03T05:45:44.159Z,2916.00
2018-09-03T05:46:44.315Z,2936.00
2018-09-03T05:47:44.473Z,2868.00
2018-09-03T05:48:44.620Z,2820.00
2018-09-03T05:49:44.773Z,2800.00
2018-09-03T05:50:45.029Z,2768.00
2018-09-03T05:51:45.077Z,2768.00
2018-09-03T05:52:45.233Z,2788.00
2018-09-03T05:53:45.384Z,2656.00
2018-09-03T05:54:45.540Z,2484.00
2018-09-03T05:55:45.694Z,2300.00
2018-09-03T05:56:45.845Z,2112.00
2018-09-03T05:57:46.003Z,1912.00
2018-09-03T05:58:46.157Z,1776.00
2018-09-03T05:59:46.310Z,1720.00
2018-09-03T06:00:46.467Z,1744.00
2018-09-03T06:01:46.617Z,1764.00
2018-09-03T06:02:46.774Z,1732.00
2018-09-03T06:03:46.923Z,1716.00
2018-09-03T06:04:47.100Z,1716.00
2018-09-03T06:05:47.231Z,1728.00
2018-09-03T06:06:47.383Z,1724.00
2018-09-03T06:07:47.533Z,1696.00
2018-09-03T06:08:47.686Z,1660.00
2018-09-03T06:09:47.842Z,1652.00
2018-09-03T06:10:47.997Z,1680.00
2018-09-03T06:11:48.148Z,1696.00
2018-09-03T06:12:48.301Z,1676.00
2018-09-03T06:13:48.453Z,1660.00
2018-09-03T06:14:48.609Z,1680.00
2018-09-03T06:15:48.762Z,1740.00
2018-09-03T06:16:48.913Z,1848.00
2018-09-03T06:17:49.102Z,1996.00
2018-09-03T06:18:49.218Z,2148.00
2018-09-03T06:19:49.379Z,2280.00
2018-09-03T06:20:49.526Z,2364.00
2018-09-03T06:21:49.680Z,2372.00
2018-09-03T06:22:49.835Z,2300.00
2018-09-03T06:23:49.988Z,2200.00
2018-09-03T06:24:50.140Z,2096.00
2018-09-03T06:25:50.296Z,2052.00
2018-09-03T06:26:50.449Z,2084.00
2018-09-03T06:27:50.602Z,2164.00
2018-09-03T06:28:50.759Z,2232.00
2018-09-03T06:29:50.913Z,2316.00
2018-09-03T06:30:51.066Z,2408.00
2018-09-03T06:31:51.220Z,2488.00
2018-09-03T06:32:51.377Z,2608.00
2018-09-03T06:33:51.531Z,2816.00
2018-09-03T06:34:51.687Z,3108.00
2018-09-03T06:35:51.866Z,3384.00
2018-09-03T06:36:51.989Z,3492.00
2018-09-03T06:37:52.146Z,3488.00
2018-09-03T06:38:52.300Z,3392.00
2018-09-03T06:39:52.456Z,3332.00
2018-09-03T06:40:52.608Z,3412.00
2018-09-03T06:41:52.763Z,3704.00
2018-09-03T06:42:52.914Z,3964.00
2018-09-03T06:43:53.073Z,4356.00
2018-09-03T06:44:53.227Z,4776.00
2018-09-03T06:45:53.403Z,5116.00
2018-09-03T06:46:53.535Z,5416.00
2018-09-03T06:47:53.689Z,5572.00
2018-09-03T06:48:53.842Z,5748.00
2018-09-03T06:49:53.997Z,5744.00
2018-09-03T06:50:54.153Z,5352.00
2018-09-03T06:51:54.307Z,4684.00
2018-09-03T06:52:54.462Z,4136.00
2018-09-03T06:53:54.616Z,3772.00
2018-09-03T06:54:54.768Z,3592.00
2018-09-03T06:55:54.922Z,3768.00
2018-09-03T06:56:55.075Z,4176.00
2018-09-03T06:57:55.229Z,4376.00
2018-09-03T06:58:55.383Z,4176.00
2018-09-03T06:59:55.540Z,3768.00
2018-09-03T07:00:55.694Z,3300.00
2018-09-03T07:01:55.846Z,2936.00
2018-09-03T07:02:56.002Z,2636.00
2018-09-03T07:03:56.155Z,2452.00
2018-09-03T07:04:56.309Z,2308.00
2018-09-03T07:05:56.463Z,2336.00
2018-09-03T07:06:56.620Z,2324.00
2018-09-03T07:07:56.774Z,2240.00
2018-09-03T07:08:56.925Z,2212.00
2018-09-03T07:09:57.082Z,2316.00
2018-09-03T07:10:57.238Z,2808.00
2018-09-03T07:11:57.391Z,3580.00
2018-09-03T07:12:57.546Z,4544.00
2018-09-03T07:13:57.701Z,5036.00
2018-09-03T07:14:57.855Z,5140.00
2018-09-03T07:15:58.010Z,5068.00
2018-09-03T07:16:58.161Z,5036.00
2018-09-03T07:17:58.316Z,5088.00
2018-09-03T07:18:58.474Z,5204.00
2018-09-03T07:19:58.628Z,5252.00
2018-09-03T07:20:58.783Z,5344.00
2018-09-03T07:21:58.936Z,5152.00
2018-09-03T07:22:59.092Z,4920.00
2018-09-03T07:23:59.246Z,4640.00
2018-09-03T07:24:59.401Z,4500.00
2018-09-03T07:25:59.559Z,4624.00
2018-09-03T07:26:59.710Z,4916.00
2018-09-03T07:27:59.865Z,5080.00
2018-09-03T07:29:00.090Z,4904.00
2018-09-03T07:30:00.175Z,4520.00
2018-09-03T07:31:00.329Z,4140.00
2018-09-03T07:32:00.485Z,3912.00
2018-09-03T07:33:00.639Z,3780.00
2018-09-03T07:34:00.792Z,3816.00
2018-09-03T07:35:01.002Z,3964.00
2018-09-03T07:36:01.103Z,4024.00
2018-09-03T07:37:01.257Z,3920.00
2018-09-03T07:38:01.412Z,3780.00
2018-09-03T07:39:01.568Z,3764.00
2018-09-03T07:40:01.721Z,3972.00
2018-09-03T07:41:01.875Z,4196.00
2018-09-03T07:42:02.032Z,4084.00
2018-09-03T07:43:02.185Z,3868.00
2018-09-03T07:44:02.390Z,2988.00
2018-09-03T07:45:02.496Z,2120.00
2018-09-03T07:46:02.657Z,1796.00
2018-09-03T07:47:02.806Z,1764.00
2018-09-03T07:48:02.959Z,1772.00
2018-09-03T07:49:03.154Z,1752.00
2018-09-03T07:50:03.272Z,1744.00
2018-09-03T07:51:03.491Z,1896.00
2018-09-03T07:52:03.584Z,2324.00
2018-09-03T07:53:03.747Z,2628.00
2018-09-03T07:54:03.903Z,2640.00
2018-09-03T07:55:04.106Z,2616.00
2018-09-03T07:56:04.212Z,2688.00
2018-09-03T07:57:04.365Z,2764.00
2018-09-03T07:58:04.520Z,2832.00
2018-09-03T07:59:04.674Z,2744.00
2018-09-03T08:00:04.831Z,2412.00
2018-09-03T08:01:05.028Z,2112.00
2018-09-03T08:02:05.140Z,2040.00
2018-09-03T08:03:05.288Z,2096.00
2018-09-03T08:04:05.443Z,2172.00
2018-09-03T08:05:05.643Z,2216.00
2018-09-03T08:06:05.754Z,2256.00
2018-09-03T08:07:05.907Z,2292.00
2018-09-03T08:08:06.060Z,2316.00
2018-09-03T08:09:06.213Z,2332.00
2018-09-03T08:10:06.367Z,2384.00
2018-09-03T08:11:06.521Z,2516.00
2018-09-03T08:12:06.676Z,2580.00
2018-09-03T08:13:06.835Z,2532.00
2018-09-03T08:14:06.988Z,2380.00
2018-09-03T08:15:07.144Z,2240.00
2018-09-03T08:16:07.297Z,2208.00
2018-09-03T08:17:07.451Z,2244.00
2018-09-03T08:18:07.607Z,2296.00
2018-09-03T08:19:07.760Z,2372.00
2018-09-03T08:20:07.979Z,2492.00
2018-09-03T08:21:08.071Z,2528.00
2018-09-03T08:22:08.223Z,2468.00
2018-09-03T08:23:08.378Z,2420.00
2018-09-03T08:24:08.531Z,2380.00
2018-09-03T08:25:08.687Z,2348.00
2018-09-03T08:26:08.840Z,2340.00
2018-09-03T08:27:08.999Z,2348.00
2018-09-03T08:28:09.148Z,2240.00
2018-09-03T08:29:09.304Z,2072.00
2018-09-03T08:30:09.481Z,1892.00
2018-09-03T08:31:09.616Z,1832.00
2018-09-03T08:32:09.770Z,1872.00
2018-09-03T08:33:09.925Z,1876.00
2018-09-03T08:34:10.081Z,1776.00
2018-09-03T08:35:10.235Z,1648.00
2018-09-03T08:36:10.392Z,1592.00
2018-09-03T08:37:10.545Z,1492.00
2018-09-03T08:38:10.698Z,1344.00
2018-09-03T08:39:10.851Z,1304.00
2018-09-03T08:40:11.005Z,1404.00
2018-09-03T08:41:11.158Z,1592.00
2018-09-03T08:42:11.313Z,1748.00
2018-09-03T08:43:11.468Z,1844.00
2018-09-03T08:44:11.619Z,2000.00
2018-09-03T08:45:11.776Z,2324.00
2018-09-03T08:46:11.930Z,2760.00
2018-09-03T08:47:12.086Z,3160.00
2018-09-03T08:48:12.238Z,3436.00
2018-09-03T08:49:12.394Z,3620.00
2018-09-03T08:50:12.575Z,3828.00
2018-09-03T08:51:12.702Z,4108.00
2018-09-03T08:52:12.858Z,4368.00
2018-09-03T08:53:13.012Z,4600.00
2018-09-03T08:54:13.165Z,4660.00
2018-09-03T08:55:13.323Z,4644.00
2018-09-03T08:56:13.473Z,4504.00
2018-09-03T08:57:13.630Z,4468.00
2018-09-03T08:58:13.784Z,4716.00
2018-09-03T08:59:13.938Z,5196.00
2018-09-03T09:00:14.093Z,5652.00
2018-09-03T09:01:14.248Z,6072.00
2018-09-03T09:02:14.401Z,6292.00
2018-09-03T09:03:14.557Z,5912.00
2018-09-03T09:04:14.712Z,5064.00
2018-09-03T09:05:14.872Z,4508.00
2018-09-03T09:06:15.026Z,4320.00
2018-09-03T09:07:15.177Z,4332.00
2018-09-03T09:08:15.339Z,4488.00
2018-09-03T09:09:15.488Z,4776.00
2018-09-03T09:10:15.646Z,5316.00
2018-09-03T09:11:15.799Z,6240.00
2018-09-03T09:12:15.956Z,7576.00
2018-09-03T09:13:16.099Z,8460.00
2018-09-03T09:14:16.257Z,8224.00
2018-09-03T09:15:16.413Z,7464.00
2018-09-03T09:16:16.571Z,7236.00
2018-09-03T09:17:16.723Z,7652.00
2018-09-03T09:18:16.876Z,8368.00
2018-09-03T09:19:17.038Z,8644.00
2018-09-03T09:20:17.189Z,7640.00
2018-09-03T09:21:17.340Z,5440.00
2018-09-03T09:22:17.494Z,4800.00
2018-09-03T09:23:17.649Z,4972.00
2018-09-03T09:24:17.832Z,5056.00
2018-09-03T09:25:17.959Z,4760.00
2018-09-03T09:26:18.115Z,4064.00
2018-09-03T09:27:18.270Z,3568.00
2018-09-03T09:28:18.424Z,3656.00
2018-09-03T09:29:18.579Z,3888.00
2018-09-03T09:30:18.733Z,4120.00
2018-09-03T09:31:18.891Z,4556.00
2018-09-03T09:32:19.047Z,4960.00
2018-09-03T09:33:19.201Z,4612.00
2018-09-03T09:34:19.355Z,3628.00
2018-09-03T09:35:19.511Z,3160.00
2018-09-03T09:36:19.666Z,3352.00
2018-09-03T09:37:19.820Z,3704.00
2018-09-03T09:38:19.975Z,3896.00
2018-09-03T09:39:20.129Z,3804.00
2018-09-03T09:40:20.284Z,3324.00
2018-09-03T09:41:20.493Z,2720.00
2018-09-03T09:42:20.593Z,2408.00
2018-09-03T09:43:20.747Z,2444.00
2018-09-03T09:44:20.902Z,2876.00
2018-09-03T09:45:21.057Z,3656.00
2018-09-03T09:46:21.211Z,4220.00
2018-09-03T09:47:21.368Z,4336.00
2018-09-03T09:48:21.578Z,4516.00
2018-09-03T09:49:21.680Z,4780.00
2018-09-03T09:50:21.833Z,4684.00
2018-09-03T09:51:21.989Z,4360.00
2018-09-03T09:52:22.148Z,4120.00
2018-09-03T09:53:22.300Z,4052.00
2018-09-03T09:54:22.456Z,3880.00
2018-09-03T09:55:22.612Z,3628.00
2018-09-03T09:56:22.769Z,3376.00
2018-09-03T09:57:22.931Z,3416.00
2018-09-03T09:58:23.081Z,3344.00
2018-09-03T09:59:23.232Z,3240.00
2018-09-03T10:00:23.389Z,3332.00
2018-09-03T10:01:23.541Z,3396.00
2018-09-03T10:02:23.697Z,3444.00
2018-09-03T10:03:23.851Z,3460.00
2018-09-03T10:04:24.021Z,3436.00
2018-09-03T10:05:24.161Z,3236.00
2018-09-03T10:06:24.315Z,2980.00
2018-09-03T10:07:24.510Z,2872.00
2018-09-03T10:08:24.627Z,2836.00
2018-09-03T10:09:24.779Z,2784.00
2018-09-03T10:10:24.934Z,2692.00
2018-09-03T10:11:25.090Z,2684.00
2018-09-03T10:12:25.241Z,2780.00
2018-09-03T10:13:25.396Z,2852.00
2018-09-03T10:14:25.552Z,2892.00
2018-09-03T10:15:25.707Z,2960.00
2018-09-03T10:16:25.860Z,3020.00
2018-09-03T10:17:26.015Z,3084.00
2018-09-03T10:18:26.173Z,3336.00
2018-09-03T10:19:26.327Z,3640.00
2018-09-03T10:20:26.483Z,4036.00
2018-09-03T10:21:26.638Z,4508.00
2018-09-03T10:22:26.792Z,4996.00
2018-09-03T10:23:26.946Z,5360.00
2018-09-03T10:24:27.102Z,5480.00
2018-09-03T10:25:27.259Z,5244.00
2018-09-03T10:26:27.421Z,5020.00
2018-09-03T10:27:27.568Z,4936.00
2018-09-03T10:28:27.768Z,4868.00
2018-09-03T10:29:27.875Z,4824.00
2018-09-03T10:30:28.030Z,4772.00
2018-09-03T10:31:28.184Z,4784.00
2018-09-03T10:32:28.341Z,4756.00
2018-09-03T10:33:28.494Z,4796.00
2018-09-03T10:34:28.651Z,4952.00
2018-09-03T10:35:28.802Z,5272.00
2018-09-03T10:36:28.960Z,6016.00
2018-09-03T10:37:29.115Z,7164.00
2018-09-03T10:38:29.270Z,7652.00
2018-09-03T10:39:29.425Z,7436.00
2018-09-03T10:40:29.579Z,6848.00
2018-09-03T10:41:29.735Z,6184.00
2018-09-03T10:42:29.889Z,5788.00
2018-09-03T10:43:30.046Z,5672.00
2018-09-03T10:44:30.200Z,6068.00
2018-09-03T10:45:30.354Z,6868.00
2018-09-03T10:46:30.511Z,7804.00
2018-09-03T10:47:30.729Z,8280.00
2018-09-03T10:48:30.822Z,8552.00
2018-09-03T10:49:30.975Z,8780.00
2018-09-03T10:50:31.131Z,8900.00
2018-09-03T10:51:31.286Z,8672.00
2018-09-03T10:52:31.440Z,8240.00
2018-09-03T10:53:31.635Z,7948.00
2018-09-03T10:54:31.753Z,7492.00
2018-09-03T10:55:31.905Z,6880.00
2018-09-03T10:56:32.061Z,6228.00
2018-09-03T10:57:32.219Z,5704.00
2018-09-03T10:58:32.375Z,5204.00
2018-09-03T10:59:32.527Z,4680.00
2018-09-03T11:00:32.680Z,4240.00
2018-09-03T11:01:32.898Z,3848.00
2018-09-03T11:02:32.993Z,3624.00
2018-09-03T11:03:33.149Z,3520.00
2018-09-03T11:04:33.305Z,3420.00
2018-09-03T11:05:33.459Z,3328.00
2018-09-03T11:06:33.614Z,3188.00
2018-09-03T11:07:33.770Z,3056.00
2018-09-03T11:08:33.927Z,3012.00
2018-09-03T11:09:34.082Z,2996.00
2018-09-03T11:10:34.236Z,2956.00
2018-09-03T11:11:34.392Z,2912.00
2018-09-03T11:12:34.547Z,2880.00
2018-09-03T11:13:34.711Z,2900.00
2018-09-03T11:14:34.856Z,2968.00
2018-09-03T11:15:35.013Z,2852.00
2018-09-03T11:16:35.164Z,2656.00
2018-09-03T11:17:35.318Z,2696.00
2018-09-03T11:18:35.484Z,2992.00
2018-09-03T11:19:35.628Z,3236.00
2018-09-03T11:20:35.786Z,3228.00
2018-09-03T11:21:36.127Z,3228.00
2018-09-03T11:22:36.091Z,3168.00
2018-09-03T11:23:36.262Z,3124.00
2018-09-03T11:24:36.417Z,3392.00
2018-09-03T11:25:36.573Z,3632.00
2018-09-03T11:26:36.729Z,3656.00
2018-09-03T11:27:36.882Z,3716.00
2018-09-03T11:28:37.041Z,3716.00
2018-09-03T11:29:37.193Z,3628.00
2018-09-03T11:30:37.348Z,3548.00
2018-09-03T11:31:37.507Z,3472.00
2018-09-03T11:32:37.657Z,3408.00
2018-09-03T11:33:37.815Z,3340.00
2018-09-03T11:34:37.967Z,3380.00
2018-09-03T11:35:38.124Z,3456.00
2018-09-03T11:36:38.278Z,3452.00
2018-09-03T11:37:38.436Z,3364.00
2018-09-03T11:38:38.593Z,3440.00
2018-09-03T11:39:38.746Z,3716.00
2018-09-03T11:40:38.903Z,3712.00
2018-09-03T11:41:39.059Z,3296.00
2018-09-03T11:42:39.213Z,3064.00
2018-09-03T11:43:39.368Z,3308.00
2018-09-03T11:44:39.526Z,3556.00
2018-09-03T11:45:39.682Z,3512.00
2018-09-03T11:46:39.833Z,3464.00
2018-09-03T11:47:39.992Z,3600.00
2018-09-03T11:48:40.144Z,3676.00
2018-09-03T11:49:40.299Z,3748.00
2018-09-03T11:50:40.458Z,3676.00
2018-09-03T11:51:40.614Z,3352.00
2018-09-03T11:52:40.764Z,3044.00
2018-09-03T11:53:40.929Z,2920.00
2018-09-03T11:54:41.082Z,3004.00
2018-09-03T11:55:41.240Z,3276.00
2018-09-03T11:56:41.395Z,3492.00
2018-09-03T11:57:41.548Z,3508.00
2018-09-03T11:58:41.706Z,3268.00
2018-09-03T11:59:41.858Z,2960.00
2018-09-03T12:00:42.016Z,2820.00
2018-09-03T12:01:42.170Z,2812.00
2018-09-03T12:02:42.325Z,2764.00
2018-09-03T12:03:42.479Z,2656.00
2018-09-03T12:04:42.636Z,2584.00
2018-09-03T12:05:42.809Z,2604.00
2018-09-03T12:06:43.014Z,2656.00
2018-09-03T12:07:43.121Z,2688.00
2018-09-03T12:08:43.276Z,2696.00
2018-09-03T12:09:43.430Z,2748.00
2018-09-03T12:10:43.586Z,2864.00
2018-09-03T12:11:43.743Z,3100.00
2018-09-03T12:12:43.901Z,3324.00
2018-09-03T12:13:44.055Z,3460.00
2018-09-03T12:14:44.208Z,3500.00
2018-09-03T12:15:44.367Z,3304.00
2018-09-03T12:16:44.517Z,3152.00
2018-09-03T12:17:44.673Z,3072.00
2018-09-03T12:18:44.828Z,3028.00
2018-09-03T12:19:44.984Z,3176.00
2018-09-03T12:20:45.152Z,3260.00
2018-09-03T12:21:45.299Z,3076.00
2018-09-03T12:22:45.454Z,2792.00
2018-09-03T12:23:45.606Z,2568.00
2018-09-03T12:24:45.763Z,2460.00
2018-09-03T12:25:45.918Z,2496.00
2018-09-03T12:26:46.073Z,2508.00
2018-09-03T12:27:46.249Z,2484.00
2018-09-03T12:28:46.383Z,2456.00
2018-09-03T12:29:46.541Z,2388.00
2018-09-03T12:30:46.697Z,2428.00
2018-09-03T12:31:46.850Z,2588.00
2018-09-03T12:32:47.005Z,2748.00
2018-09-03T12:33:47.159Z,2816.00